Time;durP1;ratioP1;P1;durP2;ratioP2;P2;SDS_P1;SDS_P2;PMS_P1;PMS_P2;Temp;Humidity;BMP_temperature;BMP_pressure;BME280_temperature;BME280_humidity;BME280_pressure;Samples;Min_cycle;Max_cycle;Signal;HPM_P1;HPM_P2
2021/10/26 00:01:56;;;;;;;12.68;7.40;;;;;;;13.80;81.72;101577.47;5076107;28;20044;-72
2021/10/26 00:04:25;;;;;;;13.52;7.25;;;;;;;13.75;81.56;101578.41;5076103;28;20049;-71
2021/10/26 00:06:52;;;;;;;13.60;7.28;;;;;;;13.80;81.29;101571.94;5071825;28;20047;-72
2021/10/26 00:09:20;;;;;;;12.30;6.38;;;;;;;13.61;81.83;101571.28;5054405;28;20052;-71
2021/10/26 00:11:47;;;;;;;12.85;6.65;;;;;;;13.39;82.44;101570.13;5052734;28;20086;-72
2021/10/26 00:14:15;;;;;;;14.00;6.75;;;;;;;13.60;82.22;101569.66;5053057;28;20049;-71
2021/10/26 00:16:42;;;;;;;15.15;7.18;;;;;;;13.71;81.66;101571.03;5054910;28;20476;-72
2021/10/26 00:19:10;;;;;;;11.30;6.15;;;;;;;13.71;81.00;101573.81;5054982;28;20045;-69
2021/10/26 00:21:37;;;;;;;15.18;6.55;;;;;;;13.36;81.79;101576.28;5053797;28;20518;-69
2021/10/26 00:24:05;;;;;;;12.90;6.18;;;;;;;13.16;82.67;101575.91;5053454;28;20044;-68
2021/10/26 00:26:32;;;;;;;14.55;6.47;;;;;;;13.25;82.77;101574.06;5059754;28;20060;-69
2021/10/26 00:28:59;;;;;;;13.35;5.97;;;;;;;13.14;82.66;101573.47;5076020;28;20496;-69
2021/10/26 00:31:27;;;;;;;13.93;6.50;;;;;;;13.25;82.48;101580.41;5056948;28;20063;-69
2021/10/26 00:33:55;;;;;;;13.63;6.75;;;;;;;13.32;82.29;101586.31;5067369;28;20080;-68
2021/10/26 00:36:22;;;;;;;13.82;6.18;;;;;;;13.23;82.04;101582.66;5055255;28;20087;-68
2021/10/26 00:38:50;;;;;;;12.57;5.82;;;;;;;13.50;81.76;101582.59;5058830;28;20044;-69
2021/10/26 00:41:18;;;;;;;13.48;6.07;;;;;;;13.58;80.92;101592.13;5075671;28;20048;-68
2021/10/26 00:43:45;;;;;;;13.07;6.18;;;;;;;13.22;81.60;101586.56;5075023;28;20048;-69
2021/10/26 00:46:13;;;;;;;12.75;5.68;;;;;;;13.25;82.08;101583.16;5073759;28;20048;-69
2021/10/26 00:48:40;;;;;;;8.45;5.18;;;;;;;13.52;81.09;101594.19;5074210;28;20053;-68
2021/10/26 00:51:08;;;;;;;11.60;5.78;;;;;;;13.29;81.08;101591.66;5074131;28;20044;-69
2021/10/26 00:53:35;;;;;;;14.13;5.60;;;;;;;13.30;81.16;101593.31;5057383;28;20510;-68
2021/10/26 00:56:05;;;;;;;9.18;4.47;;;;;;;13.15;81.50;101594.44;5074305;28;20064;-69
2021/10/26 00:58:32;;;;;;;10.48;4.85;;;;;;;13.02;82.13;101600.00;5074107;28;20060;-68
2021/10/26 01:01:00;;;;;;;13.23;4.68;;;;;;;13.13;81.73;101602.25;5073855;28;20044;-69
2021/10/26 01:03:28;;;;;;;12.07;4.40;;;;;;;13.29;81.37;101595.25;5057437;28;20056;-67
2021/10/26 01:05:57;;;;;;;9.63;4.53;;;;;;;13.25;80.95;101597.00;5074036;28;20055;-68
2021/10/26 01:08:25;;;;;;;11.35;4.93;;;;;;;13.38;80.61;101598.94;5075083;28;20492;-69
2021/10/26 01:10:53;;;;;;;12.43;5.20;;;;;;;13.17;80.55;101597.72;5057449;28;20056;-67
2021/10/26 01:13:23;;;;;;;10.00;5.00;;;;;;;13.07;81.26;101591.59;5057234;28;20055;-69
2021/10/26 01:15:54;;;;;;;10.38;4.63;;;;;;;13.24;80.67;101600.06;5057189;28;20052;-69
2021/10/26 01:18:33;;;;;;;8.77;4.53;;;;;;;13.30;80.70;101594.13;5073910;28;20048;-68
2021/10/26 01:21:00;;;;;;;10.98;4.43;;;;;;;13.25;79.97;101597.00;5073819;28;20040;-68
2021/10/26 01:23:28;;;;;;;9.48;4.88;;;;;;;13.04;80.74;101614.34;5065854;28;20056;-69
2021/10/26 01:25:56;;;;;;;8.82;3.60;;;;;;;12.99;80.35;101611.66;5040322;28;20050;-68
2021/10/26 01:28:23;;;;;;;7.43;3.50;;;;;;;12.88;80.90;101601.91;5040254;28;20053;-68
2021/10/26 01:30:54;;;;;;;8.27;3.30;;;;;;;12.64;81.17;101602.09;5039983;28;20381;-69
2021/10/26 01:33:57;;;;;;;7.63;3.30;;;;;;;12.80;81.17;101606.22;5044384;28;20046;-70
2021/10/26 01:36:33;;;;;;;10.23;3.75;;;;;;;12.91;80.70;101606.81;5040414;28;20057;-68
2021/10/26 01:39:00;;;;;;;7.15;3.10;;;;;;;12.69;80.83;101602.03;5050371;28;20458;-69
2021/10/26 01:41:31;;;;;;;7.72;3.22;;;;;;;12.68;81.35;101600.38;5080471;28;20064;-68
2021/10/26 01:43:59;;;;;;;9.23;3.28;;;;;;;12.77;80.96;101609.59;5080025;28;20411;-72
2021/10/26 01:46:26;;;;;;;8.30;3.58;;;;;;;12.65;81.28;101613.97;5079304;28;20057;-71
2021/10/26 01:48:54;;;;;;;9.90;3.20;;;;;;;12.77;81.03;101606.81;5062761;28;20048;-73
2021/10/26 01:51:22;;;;;;;8.68;3.45;;;;;;;12.90;80.39;101606.00;5081617;28;20047;-72
2021/10/26 01:53:49;;;;;;;9.43;3.20;;;;;;;12.70;81.15;101611.94;5063240;28;20538;-71
2021/10/26 01:56:17;;;;;;;6.43;3.03;;;;;;;12.75;81.09;101608.25;5080171;28;20052;-73
2021/10/26 01:58:51;;;;;;;8.70;3.13;;;;;;;12.76;80.91;101607.13;5064786;28;20045;-72
2021/10/26 02:01:31;;;;;;;10.75;3.60;;;;;;;12.62;81.34;101609.06;5080002;28;20064;-72
2021/10/26 02:03:59;;;;;;;9.55;3.58;;;;;;;12.52;81.45;101612.03;5080007;28;20056;-71
2021/10/26 02:06:29;;;;;;;7.55;2.90;;;;;;;12.63;81.18;101606.00;5079837;28;20067;-72
2021/10/26 02:08:57;;;;;;;8.98;3.17;;;;;;;12.70;80.76;101605.59;5080084;28;20059;-72
2021/10/26 02:11:24;;;;;;;7.53;3.15;;;;;;;12.66;81.00;101601.81;5046989;28;20053;-72
2021/10/26 02:13:52;;;;;;;6.82;2.92;;;;;;;12.60;81.02;101606.63;5079299;28;20067;-71
2021/10/26 02:16:20;;;;;;;8.43;3.20;;;;;;;12.48;81.12;101605.47;5079220;28;20063;-71
2021/10/26 02:18:47;;;;;;;7.78;2.63;;;;;;;12.58;81.36;101600.56;5081422;28;20052;-71
2021/10/26 02:21:20;;;;;;;8.07;3.40;;;;;;;12.52;81.03;101601.78;5064143;28;20045;-73
2021/10/26 02:23:48;;;;;;;5.13;2.88;;;;;;;12.41;81.11;101603.91;5081258;28;20059;-72
2021/10/26 02:26:15;;;;;;;11.25;3.30;;;;;;;12.50;81.23;101606.78;5080868;28;20051;-72
2021/10/26 02:28:47;;;;;;;11.93;3.03;;;;;;;12.34;81.58;101608.22;5079191;28;20059;-71
2021/10/26 02:31:15;;;;;;;8.68;2.78;;;;;;;12.47;81.24;101607.41;5081020;28;20055;-73
2021/10/26 02:33:43;;;;;;;7.22;2.90;;;;;;;12.62;80.97;101603.53;5080203;28;20048;-72
2021/10/26 02:36:10;;;;;;;8.23;2.95;;;;;;;12.68;80.51;101605.91;5076219;28;20057;-71
2021/10/26 02:38:37;;;;;;;7.68;2.58;;;;;;;12.74;80.05;101604.69;5074285;28;20048;-72
2021/10/26 02:41:05;;;;;;;8.25;2.80;;;;;;;12.82;79.67;101605.91;5056906;28;20052;-73
2021/10/26 02:43:32;;;;;;;6.95;2.95;;;;;;;12.79;79.60;101601.00;5056325;28;20053;-71
2021/10/26 02:46:00;;;;;;;8.55;2.75;;;;;;;12.80;79.60;101605.38;5056091;28;20413;-73
2021/10/26 02:48:29;;;;;;;7.78;2.60;;;;;;;12.81;79.35;101601.50;5056405;28;20049;-71
2021/10/26 02:50:56;;;;;;;7.13;2.63;;;;;;;12.74;79.59;101607.44;5056332;28;20049;-72
2021/10/26 02:53:25;;;;;;;6.95;3.13;;;;;;;12.79;79.82;101606.53;5057638;28;20056;-72
2021/10/26 02:55:53;;;;;;;5.43;2.80;;;;;;;12.62;79.76;101606.31;5056011;28;20645;-71
2021/10/26 02:58:21;;;;;;;9.60;3.60;;;;;;;12.67;80.06;101606.22;5056279;28;20048;-71
2021/10/26 03:00:49;;;;;;;9.45;2.65;;;;;;;12.79;79.47;101615.63;5055921;28;20052;-72
2021/10/26 03:03:19;;;;;;;;;;;;;;;12.84;79.00;101618.31;5056707;28;20049;-72
2021/10/26 03:05:48;;;;;;;10.00;2.83;;;;;;;12.43;80.20;101625.69;5038928;28;19920;-71
2021/10/26 03:08:16;;;;;;;8.30;2.42;;;;;;;12.60;80.20;101617.69;5055744;28;20076;-72
2021/10/26 03:10:45;;;;;;;7.85;2.95;;;;;;;12.77;79.38;101620.66;5039398;28;20385;-71
2021/10/26 03:13:16;;;;;;;5.93;2.60;;;;;;;12.89;78.71;101626.50;5056027;28;20052;-71
2021/10/26 03:15:44;;;;;;;9.07;2.92;;;;;;;12.90;78.83;101627.31;5055185;28;20523;-71
2021/10/26 03:18:17;;;;;;;8.13;2.80;;;;;;;12.94;78.41;101634.69;5039940;28;20067;-71
2021/10/26 03:20:44;;;;;;;9.05;2.72;;;;;;;12.84;78.83;101626.59;5055647;28;20060;-71
2021/10/26 03:23:12;;;;;;;6.78;2.53;;;;;;;12.93;78.41;101633.06;5054979;28;20064;-71
2021/10/26 03:25:42;;;;;;;;;;;;;;;12.73;78.99;101630.69;5056994;28;20492;-71
2021/10/26 03:28:10;;;;;;;5.82;2.38;;;;;;;12.59;79.34;101632.59;5035697;28;19921;-72
2021/10/26 03:30:38;;;;;;;6.70;2.65;;;;;;;12.78;78.85;101635.31;5051390;28;20049;-70
2021/10/26 03:33:17;;;;;;;11.50;2.80;;;;;;;12.72;78.60;101633.75;5052183;28;20049;-71
2021/10/26 03:35:54;;;;;;;7.97;2.55;;;;;;;12.73;78.91;101630.69;5036453;28;20050;-71
2021/10/26 03:38:22;;;;;;;9.80;2.90;;;;;;;12.65;79.04;101634.16;5051822;28;20053;-72
2021/10/26 03:40:51;;;;;;;7.82;2.85;;;;;;;12.67;79.11;101631.09;5075224;28;20061;-72
2021/10/26 03:43:18;;;;;;;6.05;2.47;;;;;;;12.69;78.78;101629.66;5058834;28;20052;-72
2021/10/26 03:45:45;;;;;;;9.63;2.42;;;;;;;12.70;78.96;101634.06;5074548;28;20075;-71
2021/10/26 03:48:15;;;;;;;8.82;2.70;;;;;;;12.53;79.26;101642.13;5059088;28;20431;-71
2021/10/26 03:50:43;;;;;;;10.57;2.55;;;;;;;12.49;79.70;101649.38;5075352;28;20052;-71
2021/10/26 03:53:10;;;;;;;9.27;3.05;;;;;;;12.60;79.45;101637.03;5075021;28;20055;-67
2021/10/26 03:55:39;;;;;;;6.13;2.78;;;;;;;12.72;78.79;101642.03;5074828;28;20056;-69
2021/10/26 03:58:09;;;;;;;9.45;2.85;;;;;;;12.88;78.20;101640.63;5075011;28;20047;-68
2021/10/26 04:00:37;;;;;;;8.02;2.47;;;;;;;12.62;78.69;101654.13;5057969;28;20052;-68
2021/10/26 04:03:25;;;;;;;7.38;2.55;;;;;;;12.64;78.79;101651.84;5078935;28;20052;-68
2021/10/26 04:11:50;;;;;;;9.20;3.00;;;;;;;12.54;79.67;101653.97;5059010;28;20155;-68
2021/10/26 04:13:48;;;;;;;8.38;3.28;;;;;;;12.32;80.08;101651.88;5069148;28;20067;-68
2021/10/26 04:16:16;;;;;;;9.48;3.05;;;;;;;12.39;79.98;101650.38;5073341;28;20061;-69
2021/10/26 04:18:44;;;;;;;7.15;2.70;;;;;;;12.48;79.72;101653.28;5074457;28;20079;-67
2021/10/26 04:21:13;;;;;;;11.73;2.70;;;;;;;12.39;79.93;101661.44;5057758;28;20059;-68
2021/10/26 04:23:47;;;;;;;8.13;2.47;;;;;;;12.35;80.26;101660.38;5075566;28;20052;-67
2021/10/26 04:26:16;;;;;;;8.48;2.10;;;;;;;12.48;79.71;101663.50;5075245;28;20056;-68
2021/10/26 04:28:44;;;;;;;10.02;2.75;;;;;;;12.51;79.59;101657.34;5057221;28;20428;-66
2021/10/26 04:31:13;;;;;;;10.00;2.63;;;;;;;12.56;79.33;101660.03;5074215;28;20059;-68
2021/10/26 04:33:40;;;;;;;7.47;2.35;;;;;;;12.52;78.98;101661.78;5074441;28;20060;-67
2021/10/26 04:36:09;;;;;;;9.15;2.53;;;;;;;12.43;79.37;101669.91;5057606;28;20053;-68
2021/10/26 04:38:38;;;;;;;9.52;2.65;;;;;;;12.42;79.41;101665.53;5055423;28;20056;-68
2021/10/26 04:41:08;;;;;;;9.35;2.88;;;;;;;12.24;79.91;101667.19;5054441;28;20045;-67
2021/10/26 04:43:35;;;;;;;;;;;;;;;12.45;79.68;101667.66;5054710;28;20049;-68
2021/10/26 04:46:07;;;;;;;7.05;2.30;;;;;;;12.33;79.98;101672.84;5053638;28;19932;-69
2021/10/26 04:48:35;;;;;;;8.68;2.40;;;;;;;12.37;79.80;101674.72;5054192;28;20494;-69
2021/10/26 04:51:02;;;;;;;9.45;2.90;;;;;;;12.29;80.10;101680.13;5054099;28;20049;-67
2021/10/26 04:53:30;;;;;;;4.43;2.40;;;;;;;12.26;79.87;101677.94;5054016;28;20393;-68
2021/10/26 04:56:00;;;;;;;9.15;3.25;;;;;;;12.31;79.78;101675.91;5053653;28;20049;-68
2021/10/26 04:58:32;;;;;;;9.27;2.20;;;;;;;12.17;80.34;101674.22;5053269;28;20163;-68
2021/10/26 05:00:59;;;;;;;9.30;2.65;;;;;;;12.28;80.10;101676.53;5053542;28;20049;-68
2021/10/26 05:03:31;;;;;;;9.30;3.13;;;;;;;12.19;80.01;101686.63;5053825;28;20052;-67
2021/10/26 05:05:59;;;;;;;10.13;3.08;;;;;;;12.27;79.93;101687.88;5053543;28;20049;-68
2021/10/26 05:08:26;;;;;;;8.90;3.22;;;;;;;12.19;80.31;101683.03;5054803;28;20064;-70
2021/10/26 05:10:54;;;;;;;10.10;3.10;;;;;;;12.00;80.71;101680.28;5053020;28;20411;-67
2021/10/26 05:13:22;;;;;;;8.50;3.45;;;;;;;11.92;81.18;101680.16;5053498;28;20152;-68
2021/10/26 05:16:28;;;;;;;9.80;4.00;;;;;;;11.91;81.28;101684.00;5071609;28;20059;-69
2021/10/26 05:19:16;;;;;;;9.73;3.90;;;;;;;12.03;80.64;101689.94;5072411;28;20057;-68
2021/10/26 05:22:02;;;;;;;9.85;3.90;;;;;;;12.06;80.99;101692.09;5058918;28;20512;-67
2021/10/26 05:24:58;;;;;;;9.63;4.28;;;;;;;11.96;80.76;101687.53;5057739;28;20053;-68
2021/10/26 05:27:45;;;;;;;11.87;4.83;;;;;;;11.78;81.41;101693.06;5053756;28;20052;-68
2021/10/26 05:30:13;;;;;;;9.82;3.97;;;;;;;12.02;80.65;101693.78;5031600;28;20473;-68
2021/10/26 05:32:41;;;;;;;9.48;3.58;;;;;;;12.01;80.76;101700.44;5034803;28;20590;-68
2021/10/26 05:35:08;;;;;;;9.65;4.20;;;;;;;11.86;81.20;101698.72;5050224;28;20056;-69
2021/10/26 05:37:36;;;;;;;9.90;3.90;;;;;;;11.84;80.98;101700.97;5034617;28;20053;-71
2021/10/26 05:40:05;;;;;;;9.23;4.38;;;;;;;12.03;80.62;101707.31;5062276;28;20048;-68
2021/10/26 05:42:33;;;;;;;8.18;3.75;;;;;;;11.64;80.30;101705.91;5068162;28;20068;-69
2021/10/26 05:45:00;;;;;;;10.73;5.20;;;;;;;11.71;80.94;101729.31;5053286;28;20163;-69
2021/10/26 05:47:28;;;;;;;10.65;4.22;;;;;;;11.53;81.52;101719.03;5055106;28;20057;-69
2021/10/26 05:49:55;;;;;;;8.85;4.00;;;;;;;11.63;81.53;101724.41;5053415;28;20052;-68
2021/10/26 05:52:23;;;;;;;7.18;4.22;;;;;;;11.44;81.76;101717.22;5054641;28;20045;-70
2021/10/26 05:54:50;;;;;;;7.55;3.70;;;;;;;11.46;81.79;101723.25;5054695;28;20596;-70
2021/10/26 05:57:18;;;;;;;8.30;3.97;;;;;;;11.49;81.83;101739.22;5053220;28;20057;-68
2021/10/26 05:59:45;;;;;;;8.48;4.28;;;;;;;11.41;81.41;101731.59;5053584;28;20053;-67
2021/10/26 06:02:12;;;;;;;8.05;4.57;;;;;;;11.41;81.75;101734.34;5046683;28;20052;-68
2021/10/26 06:04:40;;;;;;;9.52;4.63;;;;;;;11.33;81.49;101742.16;5052435;28;20412;-68
2021/10/26 06:07:08;;;;;;;11.82;4.55;;;;;;;11.64;81.38;101748.16;5051074;28;20056;-68
2021/10/26 06:09:36;;;;;;;7.75;4.80;;;;;;;11.25;80.98;101750.25;5037583;28;20060;-71
2021/10/26 06:12:05;;;;;;;8.00;4.30;;;;;;;11.29;81.51;101752.16;5054623;28;20057;-72
2021/10/26 06:14:36;;;;;;;10.52;4.82;;;;;;;11.35;81.82;101756.47;5056550;28;20148;-68
2021/10/26 06:17:03;;;;;;;10.82;5.10;;;;;;;11.49;81.60;101758.53;5072633;28;20055;-67
2021/10/26 06:19:34;;;;;;;9.88;6.10;;;;;;;11.31;81.63;101760.13;5065787;28;20045;-69
2021/10/26 06:22:02;;;;;;;9.93;5.40;;;;;;;11.33;82.01;101766.19;5058782;28;20512;-66
2021/10/26 06:24:31;;;;;;;8.18;5.28;;;;;;;11.13;82.04;101769.97;5060022;28;20049;-67
2021/10/26 06:26:59;;;;;;;9.98;5.70;;;;;;;11.21;82.40;101758.28;5060549;28;20052;-68
2021/10/26 06:29:27;;;;;;;8.93;4.97;;;;;;;11.00;82.67;101769.84;5056374;28;20053;-68
2021/10/26 06:32:20;;;;;;;10.60;5.43;;;;;;;10.95;82.83;101769.84;5055060;28;20056;-72
2021/10/26 06:35:13;;;;;;;8.23;4.97;;;;;;;11.14;82.77;101766.09;5053854;28;20393;-70
2021/10/26 06:37:43;;;;;;;9.00;6.03;;;;;;;11.12;82.32;101767.50;5055992;28;20055;-70
2021/10/26 06:40:12;;;;;;;13.00;6.07;;;;;;;11.41;81.62;101764.69;5069040;28;20053;-70
2021/10/26 06:42:53;;;;;;;9.32;5.32;;;;;;;11.34;81.76;101752.09;5053442;28;20488;-65
2021/10/26 06:45:39;;;;;;;9.25;5.60;;;;;;;11.50;81.09;101765.69;5056029;28;20052;-67
2021/10/26 06:48:42;;;;;;;11.50;5.60;;;;;;;11.16;81.14;101774.06;5068794;28;20052;-66
2021/10/26 06:51:28;;;;;;;10.18;6.30;;;;;;;11.37;82.38;101778.25;5053488;28;20065;-67
2021/10/26 06:54:14;;;;;;;10.82;5.72;;;;;;;11.46;81.83;101781.19;5055870;28;20056;-66
2021/10/26 06:57:10;;;;;;;10.40;6.15;;;;;;;11.43;81.47;101781.78;5044247;28;20057;-67
2021/10/26 06:59:58;;;;;;;15.65;6.43;;;;;;;11.55;81.63;101790.47;5042126;28;20053;-65
2021/10/26 07:02:51;;;;;;;11.63;7.28;;;;;;;11.38;81.99;101793.69;5047928;28;20061;-67
2021/10/26 07:05:38;;;;;;;12.32;6.45;;;;;;;11.61;81.38;101794.81;5056447;28;20045;-66
2021/10/26 07:08:24;;;;;;;12.25;7.03;;;;;;;11.68;81.75;101807.16;5055320;28;20068;-67
2021/10/26 07:11:47;;;;;;;14.35;7.55;;;;;;;11.72;81.80;101802.69;5055228;28;20056;-67
2021/10/26 07:14:14;;;;;;;15.10;8.20;;;;;;;11.79;81.91;101805.94;5054591;28;20041;-66
2021/10/26 07:16:45;;;;;;;13.95;7.97;;;;;;;11.92;81.46;101816.25;5055012;28;20056;-66
2021/10/26 07:19:15;;;;;;;13.98;7.90;;;;;;;12.00;81.57;101818.34;5053801;28;20404;-66
2021/10/26 07:22:02;;;;;;;12.82;7.13;;;;;;;12.10;81.53;101822.94;5046782;28;20061;-66
2021/10/26 07:24:56;;;;;;;15.10;7.95;;;;;;;12.06;81.91;101821.88;5055589;28;20052;-67
2021/10/26 07:27:24;;;;;;;11.50;7.60;;;;;;;12.22;81.80;101826.88;5035374;28;20100;-67
2021/10/26 07:29:52;;;;;;;11.85;7.68;;;;;;;12.23;81.68;101836.84;5035335;28;20064;-66
2021/10/26 07:32:20;;;;;;;16.48;9.00;;;;;;;12.02;82.88;101835.47;5034745;28;20060;-65
2021/10/26 07:34:49;;;;;;;13.85;8.50;;;;;;;12.27;82.21;101840.63;5059149;28;20056;-66
2021/10/26 07:37:24;;;;;;;13.10;8.77;;;;;;;12.40;81.98;101858.41;5054962;28;20049;-67
2021/10/26 07:40:03;;;;;;;12.77;8.43;;;;;;;12.40;82.24;101850.94;5067904;28;20044;-65
2021/10/26 07:42:36;;;;;;;17.75;9.48;;;;;;;12.12;83.03;101851.06;5052969;28;20052;-66
2021/10/26 07:45:23;;;;;;;16.48;8.93;;;;;;;12.42;82.74;101870.00;5055026;28;20060;-66
2021/10/26 07:47:50;;;;;;;15.63;9.18;;;;;;;12.55;82.35;101868.44;5071046;28;20049;-65
2021/10/26 07:50:18;;;;;;;13.10;7.95;;;;;;;12.50;82.64;101863.78;5037321;28;20052;-65
2021/10/26 07:52:45;;;;;;;17.83;10.20;;;;;;;12.24;83.50;101868.03;5054983;28;20420;-66
2021/10/26 07:55:15;;;;;;;;;;;;;;;12.30;83.94;101859.38;5071601;28;20044;-68
2021/10/26 07:57:51;;;;;;;14.40;9.60;;;;;;;12.21;84.90;101863.09;5045625;28;19927;-67
2021/10/26 08:00:18;;;;;;;16.55;8.65;;;;;;;12.37;84.60;101870.06;5054527;28;20410;-67
2021/10/26 08:02:53;;;;;;;15.77;9.60;;;;;;;12.60;84.41;101879.41;5054884;28;20140;-67
2021/10/26 08:05:57;;;;;;;17.05;10.13;;;;;;;12.62;84.05;101871.66;5056505;28;20045;-68
2021/10/26 08:08:25;;;;;;;17.23;9.18;;;;;;;12.71;83.94;101878.16;5053918;28;20514;-68
2021/10/26 08:10:54;;;;;;;15.32;9.65;;;;;;;12.76;83.46;101878.06;5054289;28;20052;-67
2021/10/26 08:13:22;;;;;;;15.65;9.18;;;;;;;12.85;82.77;101879.84;5054436;28;20500;-65
2021/10/26 08:15:51;;;;;;;17.52;10.02;;;;;;;12.85;82.56;101877.06;5053428;28;20040;-67
2021/10/26 08:18:19;;;;;;;16.55;9.07;;;;;;;13.14;82.02;101875.00;5054761;28;20060;-67
2021/10/26 08:20:48;;;;;;;13.63;9.07;;;;;;;13.14;81.67;101872.22;5054664;28;20139;-67
2021/10/26 08:23:19;;;;;;;15.83;8.87;;;;;;;13.42;80.40;101873.13;5035212;28;20041;-68
2021/10/26 08:25:51;;;;;;;14.27;8.65;;;;;;;13.25;80.29;101870.91;5040349;28;20075;-67
2021/10/26 08:28:21;;;;;;;15.45;8.93;;;;;;;13.37;79.54;101874.00;5053572;28;20049;-66
2021/10/26 08:31:00;;;;;;;18.27;8.98;;;;;;;13.46;79.36;101863.06;5053337;28;20060;-67
2021/10/26 08:36:20;;;;;;;14.27;7.85;;;;;;;13.35;78.75;101865.19;5054878;28;20053;-67
2021/10/26 08:38:48;;;;;;;17.17;7.80;;;;;;;13.45;78.75;101878.03;5056937;28;20099;-67
2021/10/26 08:41:16;;;;;;;15.02;8.27;;;;;;;13.27;79.11;101882.50;5059094;28;20155;-68
2021/10/26 08:43:45;;;;;;;;;;;;;;;13.38;79.06;101880.38;5033395;28;20064;-68
2021/10/26 08:46:13;;;;;;;14.27;7.20;;;;;;;13.57;78.32;101881.13;5048263;28;20392;-68
2021/10/26 08:48:41;;;;;;;15.57;7.85;;;;;;;13.46;78.27;101883.25;5053170;28;20064;-68
2021/10/26 08:51:29;;;;;;;20.25;8.43;;;;;;;13.53;78.09;101880.09;5054549;28;20064;-68
2021/10/26 08:53:57;;;;;;;16.10;8.25;;;;;;;13.48;77.93;101877.41;5053612;28;20041;-67
2021/10/26 08:56:37;;;;;;;14.83;8.37;;;;;;;13.40;78.37;101875.38;5051253;28;20053;-67
2021/10/26 08:59:34;;;;;;;22.20;8.48;;;;;;;13.41;78.05;101879.75;5069854;28;20060;-67
2021/10/26 09:02:01;;;;;;;18.38;7.88;;;;;;;13.53;78.38;101888.41;5052966;28;20049;-67
2021/10/26 09:04:36;;;;;;;16.42;8.05;;;;;;;13.24;78.30;101882.28;5054303;28;20063;-67
2021/10/26 09:07:06;;;;;;;14.55;8.55;;;;;;;13.57;77.53;101879.19;5036214;28;20479;-67
2021/10/26 09:09:38;;;;;;;15.95;7.60;;;;;;;13.44;77.31;101874.44;5052027;28;20061;-69
2021/10/26 09:18:25;;;;;;;16.20;6.55;;;;;;;13.68;76.13;101884.53;5039538;28;20064;-67
2021/10/26 09:21:27;;;;;;;12.43;6.90;;;;;;;13.52;76.11;101881.22;5050441;28;20094;-67
2021/10/26 09:23:58;;;;;;;14.65;7.07;;;;;;;13.77;75.83;101883.53;5034752;28;20296;-67
2021/10/26 09:26:52;;;;;;;12.43;6.45;;;;;;;13.85;75.60;101880.03;5056833;28;20048;-65
2021/10/26 09:29:35;;;;;;;13.75;6.75;;;;;;;13.79;75.61;101881.25;5054891;28;20425;-68
2021/10/26 09:32:04;;;;;;;12.05;6.70;;;;;;;13.82;75.39;101871.53;5054092;28;20079;-66
2021/10/26 09:34:50;;;;;;;15.43;6.67;;;;;;;13.94;75.32;101869.06;5052890;28;20049;-67
2021/10/26 09:37:18;;;;;;;12.70;6.18;;;;;;;14.02;74.86;101862.78;5052815;28;20053;-66
2021/10/26 09:39:57;;;;;;;16.85;6.93;;;;;;;14.01;74.85;101864.75;5040160;28;20061;-66
2021/10/26 09:42:27;;;;;;;14.93;5.88;;;;;;;14.08;74.67;101867.94;5059044;28;20057;-66
2021/10/26 09:45:02;;;;;;;12.55;6.07;;;;;;;13.96;74.87;101862.09;5052893;28;20388;-68
2021/10/26 09:47:37;;;;;;;17.33;8.05;;;;;;;14.06;74.54;101863.81;5056279;28;20049;-66
2021/10/26 09:50:07;;;;;;;12.27;7.30;;;;;;;14.29;74.09;101851.72;5058603;28;20064;-66
2021/10/26 09:52:43;;;;;;;12.63;5.57;;;;;;;14.34;73.52;101862.69;5057652;28;20064;-69
2021/10/26 09:57:53;;;;;;;11.20;5.38;;;;;;;14.79;72.74;101861.66;5046585;28;20041;-66
2021/10/26 10:00:24;;;;;;;10.00;4.63;;;;;;;14.98;71.42;101855.91;5057064;28;20040;-66
2021/10/26 10:03:14;;;;;;;10.32;4.47;;;;;;;14.99;71.58;101863.94;5057204;28;20055;-65
2021/10/26 10:05:54;;;;;;;12.85;4.70;;;;;;;15.02;71.01;101862.47;5035708;28;20068;-66
2021/10/26 10:08:23;;;;;;;11.77;4.57;;;;;;;15.03;70.68;101859.38;5061028;28;20053;-67
2021/10/26 10:10:52;;;;;;;13.85;4.55;;;;;;;15.18;70.82;101872.06;5058137;28;20062;-66
2021/10/26 10:13:21;;;;;;;16.63;4.85;;;;;;;15.48;70.06;101871.31;5057206;28;20045;-66
2021/10/26 10:15:49;;;;;;;11.87;4.87;;;;;;;15.21;69.80;101866.69;5054467;28;20428;-67
2021/10/26 10:18:19;;;;;;;13.57;5.47;;;;;;;15.32;70.02;101875.59;5043031;28;20064;-68
2021/10/26 10:20:53;;;;;;;;;;;;;;;15.46;69.50;101885.50;5057032;28;20064;-68
2021/10/26 10:23:23;;;;;;;11.52;3.60;;;;;;;15.53;69.03;101871.97;5056647;28;20380;-68
2021/10/26 10:25:53;;;;;;;7.47;3.63;;;;;;;15.46;69.43;101881.91;5058059;28;20060;-68
2021/10/26 10:28:30;;;;;;;12.20;4.30;;;;;;;15.36;69.60;101882.16;5055987;28;20056;-67
2021/10/26 10:30:58;;;;;;;15.35;7.55;;;;;;;15.48;69.63;101883.22;5056504;28;20056;-67
2021/10/26 10:33:27;;;;;;;11.65;4.88;;;;;;;15.55;69.40;101889.16;5058263;28;20049;-66
2021/10/26 10:35:58;;;;;;;8.45;3.33;;;;;;;15.56;68.69;101888.03;5056706;28;20052;-68
2021/10/26 10:38:32;;;;;;;9.98;3.75;;;;;;;15.38;69.64;101886.25;5057795;28;20045;-68
2021/10/26 10:41:27;;;;;;;11.00;3.78;;;;;;;15.47;69.68;101892.69;5060579;28;20049;-66
2021/10/26 10:43:58;;;;;;;10.73;3.97;;;;;;;15.75;69.00;101887.78;5054129;28;20045;-66
2021/10/26 10:46:41;;;;;;;9.48;2.97;;;;;;;15.56;68.71;101895.53;5057330;28;20052;-67
2021/10/26 10:49:20;;;;;;;9.80;3.63;;;;;;;15.78;68.58;101890.75;5056277;28;20063;-66
2021/10/26 10:52:10;;;;;;;10.23;3.17;;;;;;;15.86;68.47;101885.53;5055871;28;20053;-70
2021/10/26 10:54:44;;;;;;;8.35;3.03;;;;;;;15.77;68.19;101886.34;5056759;28;20064;-68
2021/10/26 10:57:29;;;;;;;8.20;3.33;;;;;;;15.76;68.73;101887.47;5056198;28;20052;-69
2021/10/26 10:59:59;;;;;;;17.25;6.90;;;;;;;15.63;68.88;101888.38;5054082;28;20037;-66
2021/10/26 11:02:33;;;;;;;15.25;7.35;;;;;;;15.69;69.16;101883.53;5056367;28;20408;-69
2021/10/26 11:05:04;;;;;;;19.17;10.02;;;;;;;15.52;70.02;101883.41;5055796;28;20049;-67
2021/10/26 11:07:44;;;;;;;15.57;7.80;;;;;;;15.27;70.35;101879.28;5053285;28;20052;-67
2021/10/26 11:10:14;;;;;;;14.57;6.40;;;;;;;15.53;70.01;101871.97;5039067;28;20049;-66
2021/10/26 11:12:43;;;;;;;15.73;4.50;;;;;;;15.89;69.23;101880.16;5056248;28;20049;-66
2021/10/26 11:15:19;;;;;;;10.05;3.30;;;;;;;16.16;68.21;101879.13;5050722;28;20042;-67
2021/10/26 11:17:49;;;;;;;12.35;3.88;;;;;;;16.08;68.20;101882.69;5051944;28;20389;-65
2021/10/26 11:20:26;;;;;;;8.38;3.40;;;;;;;16.28;67.88;101885.72;5055998;28;20064;-69
2021/10/26 11:23:04;;;;;;;13.95;3.00;;;;;;;16.14;68.06;101876.66;5065095;28;20064;-66
2021/10/26 11:25:37;;;;;;;14.25;5.75;;;;;;;16.08;68.31;101866.81;5037085;28;20369;-66
2021/10/26 11:28:12;;;;;;;14.32;3.90;;;;;;;16.28;67.54;101860.69;5036711;28;20056;-68
2021/10/26 11:30:42;;;;;;;14.63;4.38;;;;;;;16.50;66.94;101849.44;5038831;28;20056;-66
2021/10/26 11:33:10;;;;;;;;;;;;;;;16.60;66.11;101853.88;5057182;28;20068;-68
2021/10/26 11:35:47;;;;;;;12.23;3.42;;;;;;;16.62;66.47;101840.44;5056771;28;19921;-68
2021/10/26 11:38:29;;;;;;;13.45;2.70;;;;;;;16.66;66.09;101847.84;5056551;28;20049;-67
2021/10/26 11:41:16;;;;;;;8.65;2.65;;;;;;;16.81;65.59;101855.69;5037016;28;20049;-66
2021/10/26 11:43:52;;;;;;;10.30;2.75;;;;;;;16.64;65.54;101855.69;5038591;28;20076;-68
2021/10/26 11:46:44;;;;;;;7.18;2.45;;;;;;;16.58;65.82;101859.75;5048633;28;20040;-67
2021/10/26 11:49:23;;;;;;;10.88;3.17;;;;;;;16.95;64.46;101852.72;5055910;28;20053;-67
2021/10/26 11:51:58;;;;;;;7.25;2.58;;;;;;;16.63;65.09;101840.13;5054305;28;20045;-67
2021/10/26 11:54:35;;;;;;;7.68;2.67;;;;;;;16.82;65.27;101842.59;5037370;28;20534;-69
2021/10/26 11:57:09;;;;;;;10.43;2.60;;;;;;;16.57;65.35;101835.88;5055030;28;20041;-67
2021/10/26 12:00:02;;;;;;;11.70;4.67;;;;;;;16.68;65.54;101839.16;5054797;28;20059;-67
2021/10/26 12:02:39;;;;;;;9.77;4.00;;;;;;;16.74;65.41;101832.25;5052731;28;20045;-67
2021/10/26 12:05:20;;;;;;;13.05;4.07;;;;;;;16.94;64.72;101841.91;5043521;28;20048;-67